MSC Maria Saveria — 3FLE8 — position and weather

sailwx.info

Track history (hours):
 
Tides and Currents Weather Stations Pressure Air Temp Water Temp Dewpoint Dewpoint Depression Visibility Wind Speed Wind Dir Waves Ship Positions

MSC Maria Saveria

Last reported at 2016-Aug-25 22:31 UTC. Time now 2016-Sep-26 22:33 UTC.
Position N 31°27' E 032°20'.
Warning: this ship's position is 32 days out of date.

Length 366 m; draft 16.4 m.

Type: Ship (hazmat cat A). MMSI: 372400000.

Date/timePositionNaut miles runAvg speedWind from/ knotsBaromVisibWave heightAir tempDewpointWater temp
2016-Aug-25 22:31N 31°27' E 032°20'0 0.0
2016-Aug-25 21:19N 31°27' E 032°20'0 0.0
2016-Aug-25 20:10N 31°27' E 032°20'0 0.2
2016-Aug-25 19:31N 31°27' E 032°20'5 4.7
2016-Aug-25 18:33N 31°30' E 032°15'1211.8
2016-Aug-25 17:31N 31°39' E 032°05'2015.6
2016-Aug-25 16:14N 31°50' E 031°46'1216.5
2016-Aug-25 15:29N 31°55' E 031°33'1616.5
2016-Aug-25 14:32N 32°02' E 031°16'4916.4
2016-Aug-25 11:33N 32°22' E 030°23'19819.1
2016-Aug-25 01:13N 33°42' E 026°47'1421.2
2016-Aug-25 00:34N 33°47' E 026°32'55920.4
2016-Aug-23 21:12N 37°42' E 016°07'1520.4
2016-Aug-23 20:28N 37°48' E 015°50'1719.1
2016-Aug-23 19:33N 38°01' E 015°34'1615.5
2016-Aug-23 18:33N 38°16' E 015°40'1414.4
2016-Aug-23 17:33N 38°26' E 015°52'2 1.8
2016-Aug-23 16:31N 38°27' E 015°54'0 0.0
2016-Aug-23 15:28N 38°27' E 015°54'0 0.0
2016-Aug-23 14:22N 38°27' E 015°54'0 0.0
2016-Aug-23 13:31N 38°27' E 015°54'0 0.0
2016-Aug-23 12:31N 38°27' E 015°54'0 0.0
2016-Aug-23 11:31N 38°27' E 015°54'0 0.0
2016-Aug-23 10:31N 38°27' E 015°54'0 0.0
2016-Aug-23 09:31N 38°27' E 015°54'0 0.0
2016-Aug-23 08:31N 38°27' E 015°54'0 0.0
2016-Aug-23 07:31N 38°27' E 015°54'0 0.0
2016-Aug-23 06:31N 38°27' E 015°54'0 0.0
2016-Aug-23 05:31N 38°27' E 015°54'0 0.0
2016-Aug-23 04:31N 38°27' E 015°54'0 0.0
2016-Aug-23 03:28N 38°27' E 015°54'0 0.0
2016-Aug-23 02:31N 38°27' E 015°54'0 0.0
2016-Aug-23 01:31N 38°27' E 015°54'0 0.0
2016-Aug-23 00:31N 38°27' E 015°54'0 0.0
2016-Aug-22 23:25N 38°27' E 015°54'0 0.0
2016-Aug-22 22:31N 38°27' E 015°54'0 0.0
2016-Aug-22 21:25N 38°27' E 015°54'0 0.0
2016-Aug-22 20:28N 38°27' E 015°54'0 0.0
2016-Aug-22 19:33N 38°27' E 015°54'2 1.9
2016-Aug-22 18:33N 38°27' E 015°52'5 4.7
2016-Aug-22 17:33N 38°26' E 015°46'0 0.1
2016-Aug-22 16:33N 38°26' E 015°46'1 0.7
2016-Aug-22 15:33N 38°26' E 015°45'1312.8
2016-Aug-22 14:34N 38°23' E 015°29'1414.4
2016-Aug-22 13:34N 38°20' E 015°11'1414.0
2016-Aug-22 12:34N 38°19' E 014°53'1414.4
2016-Aug-22 11:33N 38°20' E 014°35'1514.6
2016-Aug-22 10:33N 38°21' E 014°16'1514.6
2016-Aug-22 09:33N 38°22' E 013°57'1717.0
2016-Aug-22 08:33N 38°24' E 013°36'1918.6
2016-Aug-22 07:33N 38°25' E 013°12'1818.4
2016-Aug-22 06:33N 38°27' E 012°49'1918.5
2016-Aug-22 05:33N 38°28' E 012°26'1818.5
2016-Aug-22 04:33N 38°28' E 012°02'1918.5
2016-Aug-22 03:33N 38°28' E 011°38'1818.2
2016-Aug-22 02:33N 38°28' E 011°15'3818.8
2016-Aug-22 00:32N 38°28' E 010°26'1919.0
2016-Aug-21 23:33N 38°28' E 010°03'1919.0
2016-Aug-21 22:33N 38°28' E 009°38'1918.9
2016-Aug-21 21:33N 38°28' E 009°14'2319.0
2016-Aug-21 20:20N 38°26' E 008°45'1418.4
2016-Aug-21 19:33N 38°23' E 008°27'32018.8
2016-Aug-21 02:31N 37°09' E 001°53'1818.6
2016-Aug-21 01:33N 37°05' E 001°31'2018.8
2016-Aug-21 00:29N 37°01' E 001°06'1818.7
2016-Aug-20 23:32N 36°56' E 000°45'1818.7
2016-Aug-20 22:33N 36°52' E 000°23'1919.2
2016-Aug-20 21:33N 36°47' W 000°01'1918.9
2016-Aug-20 20:33N 36°43' W 000°24'1818.5
2016-Aug-20 19:34N 36°39' W 000°46'1918.7
2016-Aug-20 18:33N 36°34' W 001°09'1918.9
2016-Aug-20 17:34N 36°30' W 001°32'1918.8
2016-Aug-20 16:34N 36°25' W 001°54'1919.0
2016-Aug-20 15:34N 36°21' W 002°17'1918.6
2016-Aug-20 14:34N 36°19' W 002°40'1818.5
2016-Aug-20 13:33N 36°15' W 003°03'1918.8
2016-Aug-20 12:33N 36°12' W 003°26'8619.4
2016-Aug-20 08:07N 35°60' W 005°11'1118.8
2016-Aug-20 07:34N 35°58' W 005°24'1919.3
2016-Aug-20 06:33N 35°54' W 005°47'1919.4
2016-Aug-20 05:33N 35°55' W 006°11'17018.9
2016-Aug-19 20:33N 36°48' W 009°32'2015.1
2016-Aug-19 19:14N 37°08' W 009°34'912.7
2016-Aug-19 18:33N 37°17' W 009°33'19 4.6
2016-Aug-19 14:33N 37°33' W 009°21'1616.1
2016-Aug-19 13:33N 37°44' W 009°07'1111.3
2016-Aug-19 12:33N 37°49' W 008°54'7 6.7
2016-Aug-19 11:31N 37°56' W 008°51'0 0.0
2016-Aug-19 10:31N 37°56' W 008°51'0 0.0
2016-Aug-19 09:25N 37°56' W 008°51'0 0.0
2016-Aug-19 08:31N 37°56' W 008°51'0 0.0
2016-Aug-19 07:31N 37°56' W 008°51'0 0.0
2016-Aug-19 06:31N 37°56' W 008°51'0 0.0
2016-Aug-19 05:31N 37°56' W 008°51'0 0.0
2016-Aug-19 04:31N 37°56' W 008°51'0 0.0
2016-Aug-19 03:31N 37°56' W 008°51'0 0.0
2016-Aug-19 02:31N 37°56' W 008°51'0 0.5
2016-Aug-19 01:33N 37°55' W 008°50'3 2.8
2016-Aug-19 00:33N 37°54' W 008°54'6 5.6
2016-Aug-18 23:33N 37°56' W 009°01'1 0.6
2016-Aug-18 22:33N 37°55' W 009°01'4 3.9
2016-Aug-18 21:33N 37°55' W 009°06'3 2.7
2016-Aug-18 20:33N 37°56' W 009°09'1 1.2
2016-Aug-18 19:33N 37°57' W 009°09'1 1.2
2016-Aug-18 18:33N 37°58' W 009°08'1 1.5
2016-Aug-18 17:33N 37°59' W 009°08'2 1.7
2016-Aug-18 16:33N 38°01' W 009°07'1 1.4
2016-Aug-18 15:34N 38°02' W 009°07'1 1.3
2016-Aug-18 14:33N 38°01' W 009°07'5 4.6
2016-Aug-18 13:32N 37°60' W 009°01'1 1.4
2016-Aug-18 12:33N 38°00' W 009°03'2 1.6
2016-Aug-18 11:33N 38°01' W 009°04'2 1.5
2016-Aug-18 10:33N 38°01' W 009°06'6 5.8
2016-Aug-18 09:33N 38°05' W 009°12'9 8.8
2016-Aug-18 08:34N 38°10' W 009°21'10 9.5
2016-Aug-18 07:33N 38°16' W 009°31'7 7.2
2016-Aug-18 06:33N 38°20' W 009°38'7 7.0
2016-Aug-18 05:34N 38°24' W 009°46'7 6.8
2016-Aug-18 04:33N 38°28' W 009°53'7 6.9
2016-Aug-18 03:33N 38°32' W 009°60'7 6.6
2016-Aug-18 02:33N 38°37' W 010°05'7 6.7
2016-Aug-18 01:33N 38°44' W 010°06'7 6.7
2016-Aug-18 00:33N 38°51' W 010°07'7 6.6
2016-Aug-17 23:33N 38°57' W 010°07'7 6.5
2016-Aug-17 22:33N 39°04' W 010°07'7 6.5
2016-Aug-17 21:33N 39°10' W 010°07'7 6.9
2016-Aug-17 20:33N 39°17' W 010°07'7 6.8
2016-Aug-17 19:33N 39°24' W 010°07'6 6.4
2016-Aug-17 18:33N 39°31' W 010°07'7 6.9
2016-Aug-17 17:33N 39°37' W 010°07'7 7.0
2016-Aug-17 16:33N 39°45' W 010°07'8 7.6
2016-Aug-17 15:26N 39°53' W 010°07'10 8.5
2016-Aug-17 14:18N 40°03' W 010°06'  
Track history (hours):
 
Tides and Currents Weather Stations Pressure Air Temp Water Temp Dewpoint Dewpoint Depression Visibility Wind Speed Wind Dir Waves Ship Positions

MSC Maria Saveria

Last reported at 2016-Aug-25 22:31 UTC. Time now 2016-Sep-26 22:33 UTC.
Position N 31°27' E 032°20'.
Warning: this ship's position is 32 days out of date.

Length 366 m; draft 16.4 m.

Type: Ship (hazmat cat A). MMSI: 372400000.

Date/timePositionNaut miles runAvg speedWind from/ knotsBaromVisibWave heightAir tempDewpointWater temp
2016-Aug-25 22:31N 31°27' E 032°20'0 0.0
2016-Aug-25 21:19N 31°27' E 032°20'0 0.0
2016-Aug-25 20:10N 31°27' E 032°20'0 0.2
2016-Aug-25 19:31N 31°27' E 032°20'5 4.7
2016-Aug-25 18:33N 31°30' E 032°15'1211.8
2016-Aug-25 17:31N 31°39' E 032°05'2015.6
2016-Aug-25 16:14N 31°50' E 031°46'1216.5
2016-Aug-25 15:29N 31°55' E 031°33'1616.5
2016-Aug-25 14:32N 32°02' E 031°16'4916.4
2016-Aug-25 11:33N 32°22' E 030°23'19819.1
2016-Aug-25 01:13N 33°42' E 026°47'1421.2
2016-Aug-25 00:34N 33°47' E 026°32'55920.4
2016-Aug-23 21:12N 37°42' E 016°07'1520.4
2016-Aug-23 20:28N 37°48' E 015°50'1719.1
2016-Aug-23 19:33N 38°01' E 015°34'1615.5
2016-Aug-23 18:33N 38°16' E 015°40'1414.4
2016-Aug-23 17:33N 38°26' E 015°52'2 1.8
2016-Aug-23 16:31N 38°27' E 015°54'0 0.0
2016-Aug-23 15:28N 38°27' E 015°54'0 0.0
2016-Aug-23 14:22N 38°27' E 015°54'0 0.0
2016-Aug-23 13:31N 38°27' E 015°54'0 0.0
2016-Aug-23 12:31N 38°27' E 015°54'0 0.0
2016-Aug-23 11:31N 38°27' E 015°54'0 0.0
2016-Aug-23 10:31N 38°27' E 015°54'0 0.0
2016-Aug-23 09:31N 38°27' E 015°54'0 0.0
2016-Aug-23 08:31N 38°27' E 015°54'0 0.0
2016-Aug-23 07:31N 38°27' E 015°54'0 0.0
2016-Aug-23 06:31N 38°27' E 015°54'0 0.0
2016-Aug-23 05:31N 38°27' E 015°54'0 0.0
2016-Aug-23 04:31N 38°27' E 015°54'0 0.0
2016-Aug-23 03:28N 38°27' E 015°54'0 0.0
2016-Aug-23 02:31N 38°27' E 015°54'0 0.0
2016-Aug-23 01:31N 38°27' E 015°54'0 0.0
2016-Aug-23 00:31N 38°27' E 015°54'0 0.0
2016-Aug-22 23:25N 38°27' E 015°54'0 0.0
2016-Aug-22 22:31N 38°27' E 015°54'0 0.0
2016-Aug-22 21:25N 38°27' E 015°54'0 0.0
2016-Aug-22 20:28N 38°27' E 015°54'0 0.0
2016-Aug-22 19:33N 38°27' E 015°54'2 1.9
2016-Aug-22 18:33N 38°27' E 015°52'5 4.7
2016-Aug-22 17:33N 38°26' E 015°46'0 0.1
2016-Aug-22 16:33N 38°26' E 015°46'1 0.7
2016-Aug-22 15:33N 38°26' E 015°45'1312.8
2016-Aug-22 14:34N 38°23' E 015°29'1414.4
2016-Aug-22 13:34N 38°20' E 015°11'1414.0
2016-Aug-22 12:34N 38°19' E 014°53'1414.4
2016-Aug-22 11:33N 38°20' E 014°35'1514.6
2016-Aug-22 10:33N 38°21' E 014°16'1514.6
2016-Aug-22 09:33N 38°22' E 013°57'1717.0
2016-Aug-22 08:33N 38°24' E 013°36'1918.6
2016-Aug-22 07:33N 38°25' E 013°12'1818.4
2016-Aug-22 06:33N 38°27' E 012°49'1918.5
2016-Aug-22 05:33N 38°28' E 012°26'1818.5
2016-Aug-22 04:33N 38°28' E 012°02'1918.5
2016-Aug-22 03:33N 38°28' E 011°38'1818.2
2016-Aug-22 02:33N 38°28' E 011°15'3818.8
2016-Aug-22 00:32N 38°28' E 010°26'1919.0
2016-Aug-21 23:33N 38°28' E 010°03'1919.0
2016-Aug-21 22:33N 38°28' E 009°38'1918.9
2016-Aug-21 21:33N 38°28' E 009°14'2319.0
2016-Aug-21 20:20N 38°26' E 008°45'1418.4
2016-Aug-21 19:33N 38°23' E 008°27'32018.8
2016-Aug-21 02:31N 37°09' E 001°53'1818.6
2016-Aug-21 01:33N 37°05' E 001°31'2018.8
2016-Aug-21 00:29N 37°01' E 001°06'1818.7
2016-Aug-20 23:32N 36°56' E 000°45'1818.7
2016-Aug-20 22:33N 36°52' E 000°23'1919.2
2016-Aug-20 21:33N 36°47' W 000°01'1918.9
2016-Aug-20 20:33N 36°43' W 000°24'1818.5
2016-Aug-20 19:34N 36°39' W 000°46'1918.7
2016-Aug-20 18:33N 36°34' W 001°09'1918.9
2016-Aug-20 17:34N 36°30' W 001°32'1918.8
2016-Aug-20 16:34N 36°25' W 001°54'1919.0
2016-Aug-20 15:34N 36°21' W 002°17'1918.6
2016-Aug-20 14:34N 36°19' W 002°40'1818.5
2016-Aug-20 13:33N 36°15' W 003°03'1918.8
2016-Aug-20 12:33N 36°12' W 003°26'8619.4
2016-Aug-20 08:07N 35°60' W 005°11'1118.8
2016-Aug-20 07:34N 35°58' W 005°24'1919.3
2016-Aug-20 06:33N 35°54' W 005°47'1919.4
2016-Aug-20 05:33N 35°55' W 006°11'17018.9
2016-Aug-19 20:33N 36°48' W 009°32'2015.1
2016-Aug-19 19:14N 37°08' W 009°34'912.7
2016-Aug-19 18:33N 37°17' W 009°33'19 4.6
2016-Aug-19 14:33N 37°33' W 009°21'1616.1
2016-Aug-19 13:33N 37°44' W 009°07'1111.3
2016-Aug-19 12:33N 37°49' W 008°54'7 6.7
2016-Aug-19 11:31N 37°56' W 008°51'0 0.0
2016-Aug-19 10:31N 37°56' W 008°51'0 0.0
2016-Aug-19 09:25N 37°56' W 008°51'0 0.0
2016-Aug-19 08:31N 37°56' W 008°51'0 0.0
2016-Aug-19 07:31N 37°56' W 008°51'0 0.0
2016-Aug-19 06:31N 37°56' W 008°51'0 0.0
2016-Aug-19 05:31N 37°56' W 008°51'0 0.0
2016-Aug-19 04:31N 37°56' W 008°51'0 0.0
2016-Aug-19 03:31N 37°56' W 008°51'0 0.0
2016-Aug-19 02:31N 37°56' W 008°51'0 0.5
2016-Aug-19 01:33N 37°55' W 008°50'3 2.8
2016-Aug-19 00:33N 37°54' W 008°54'6 5.6
2016-Aug-18 23:33N 37°56' W 009°01'1 0.6
2016-Aug-18 22:33N 37°55' W 009°01'4 3.9
2016-Aug-18 21:33N 37°55' W 009°06'3 2.7
2016-Aug-18 20:33N 37°56' W 009°09'1 1.2
2016-Aug-18 19:33N 37°57' W 009°09'1 1.2
2016-Aug-18 18:33N 37°58' W 009°08'1 1.5
2016-Aug-18 17:33N 37°59' W 009°08'2 1.7
2016-Aug-18 16:33N 38°01' W 009°07'1 1.4
2016-Aug-18 15:34N 38°02' W 009°07'1 1.3
2016-Aug-18 14:33N 38°01' W 009°07'5 4.6
2016-Aug-18 13:32N 37°60' W 009°01'1 1.4
2016-Aug-18 12:33N 38°00' W 009°03'2 1.6
2016-Aug-18 11:33N 38°01' W 009°04'2 1.5
2016-Aug-18 10:33N 38°01' W 009°06'6 5.8
2016-Aug-18 09:33N 38°05' W 009°12'9 8.8
2016-Aug-18 08:34N 38°10' W 009°21'10 9.5
2016-Aug-18 07:33N 38°16' W 009°31'7 7.2
2016-Aug-18 06:33N 38°20' W 009°38'7 7.0
2016-Aug-18 05:34N 38°24' W 009°46'7 6.8
2016-Aug-18 04:33N 38°28' W 009°53'7 6.9
2016-Aug-18 03:33N 38°32' W 009°60'7 6.6
2016-Aug-18 02:33N 38°37' W 010°05'7 6.7
2016-Aug-18 01:33N 38°44' W 010°06'7 6.7
2016-Aug-18 00:33N 38°51' W 010°07'7 6.6
2016-Aug-17 23:33N 38°57' W 010°07'7 6.5
2016-Aug-17 22:33N 39°04' W 010°07'7 6.5
2016-Aug-17 21:33N 39°10' W 010°07'7 6.9
2016-Aug-17 20:33N 39°17' W 010°07'7 6.8
2016-Aug-17 19:33N 39°24' W 010°07'6 6.4
2016-Aug-17 18:33N 39°31' W 010°07'7 6.9
2016-Aug-17 17:33N 39°37' W 010°07'7 7.0
2016-Aug-17 16:33N 39°45' W 010°07'8 7.6
2016-Aug-17 15:26N 39°53' W 010°07'10 8.5
2016-Aug-17 14:18N 40°03' W 010°06'  

Dump ship's entire track history